• Join FlightAware (Why Join?)
  • Login
  • US Flag 
08:40AM EDT


 

Airport Tracker/Info


-or-


 

Live Flight TrackerFlight Track Log ✈ CES2889 ✈ 21-Jul-2013 ✈ ZSCN / KHN - ZGZH / LZH

Flight Track Log - Related Links

Times and Time Zones

All times are in EDT time to prevent confusion due to time zone crossing. See the CES2889 flight status page for this flight to view local times or setup timezone preferences in your user account.

Time Position Orientation Groundspeed Altitude Reporting Facility
EDT Latitude Longitude Course Direction KTS MPH feet Rate Location/Type
05:18AM 28.0572 114.7002 233° Southwest  Level Estimated
05:19AM 27.9946 114.6087 232° Southwest  Level Estimated
05:20AM 27.9320 114.5173 232° Southwest  Level Estimated
05:21AM 27.8693 114.4260 232° Southwest  Level Estimated
05:22AM 27.8066 114.3347 232° Southwest  Level Estimated
05:23AM 27.7438 114.2436 232° Southwest  Level Estimated
05:24AM 27.6809 114.1526 232° Southwest  Level Estimated
05:25AM 27.6180 114.0617 232° Southwest  Level Estimated
05:26AM 27.5550 113.9709 232° Southwest  Level Estimated
05:27AM 27.4919 113.8802 232° Southwest  Level Estimated
05:28AM 27.4288 113.7896 232° Southwest  Level Estimated
05:29AM 27.3657 113.6992 232° Southwest  Level Estimated
05:30AM 27.3024 113.6088 232° Southwest  Level Estimated
05:31AM 27.2392 113.5185 232° Southwest  Level Estimated
05:32AM 27.1866 113.4437 232° Southwest  Level Estimated
05:33AM 27.1340 113.3689 232° Southwest  Level Estimated
05:34AM 27.0814 113.2943 232° Southwest  Level Estimated
05:35AM 27.0288 113.2197 232° Southwest  Level Estimated
05:36AM 26.9761 113.1451 232° Southwest  Level Estimated
05:37AM 26.9233 113.0707 232° Southwest  Level Estimated
05:38AM 26.8706 112.9963 232° Southwest  Level Estimated
05:39AM 26.8178 112.9220 231° Southwest  Level Estimated
05:40AM 26.7649 112.8477 231° Southwest  Level Estimated
05:41AM 26.7120 112.7735 231° Southwest  Level Estimated
05:42AM 26.6591 112.6994 231° Southwest  Level Estimated
05:43AM 26.6061 112.6254 231° Southwest  Level Estimated
05:44AM 26.5531 112.5514 231° Southwest  Level Estimated
05:45AM 26.5001 112.4775 231° Southwest  Level Estimated
05:46AM 26.4470 112.4036 231° Southwest  Level Estimated
05:47AM 26.3939 112.3299 231° Southwest  Level Estimated
05:48AM 26.3407 112.2561 231° Southwest  Level Estimated
05:49AM 26.2875 112.1825 231° Southwest  Level Estimated
05:50AM 26.2343 112.1089 231° Southwest  Level Estimated
05:51AM 26.1810 112.0354 231° Southwest  Level Estimated
05:52AM 26.1277 111.9620 231° Southwest  Level Estimated
05:53AM 26.0744 111.8886 231° Southwest  Level Estimated
05:54AM 26.0210 111.8153 231° Southwest  Level Estimated
05:55AM 25.9676 111.7421 231° Southwest  Level Estimated
05:56AM 25.9141 111.6689 231° Southwest  Level Estimated
05:57AM 25.8606 111.5958 231° Southwest  Level Estimated
05:58AM 25.8071 111.5228 231° Southwest  Level Estimated
05:59AM 25.7535 111.4498 231° Southwest  Level Estimated
06:00AM 25.6999 111.3769 231° Southwest  Level Estimated
06:01AM 25.6463 111.3041 231° Southwest  Level Estimated
06:02AM 25.5926 111.2313 231° Southwest  Level Estimated
06:03AM 25.5389 111.1586 231° Southwest  Level Estimated
06:04AM 25.4852 111.0859 231° Southwest  Level Estimated
06:05AM 25.4314 111.0134 231° Southwest  Level Estimated
06:06AM 25.3776 110.9408 231° Southwest  Level Estimated
06:07AM 25.3237 110.8684 231° Southwest  Level Estimated
06:08AM 25.2698 110.7960 231° Southwest  Level Estimated
06:09AM 25.2159 110.7237 231° Southwest  Level Estimated
06:10AM 25.1619 110.6514 230° Southwest  Level Estimated
06:11AM 25.1080 110.5792 230° Southwest  Level Estimated
06:12AM 25.0539 110.5071 230° Southwest  Level Estimated
06:13AM 24.9999 110.4350 230° Southwest  Level Estimated
06:14AM 24.9458 110.3630 230° Southwest  Level Estimated
06:15AM 24.8916 110.2911 230° Southwest  Level Estimated
06:16AM 24.8375 110.2192 230° Southwest  Level Estimated
06:17AM 24.7833 110.1474 230° Southwest  Level Estimated
06:18AM 24.7290 110.0757 230° Southwest  Level Estimated
06:19AM 24.6748 110.0040 230° Southwest  Level Estimated
06:20AM 24.6205 109.9324 230° Southwest  Level Estimated
06:21AM 24.5661 109.8608 230° Southwest  Level Estimated
06:22AM 24.5118 109.7893 230° Southwest  Level Estimated
06:23AM 24.4574 109.7178 230° Southwest  Level Estimated
06:24AM 24.4029 109.6465 230° Southwest  Level Estimated
06:25AM 24.3484 109.5752 230° Southwest  Level Estimated
06:26AM 24.2939 109.5039 230° Southwest  Level Estimated
06:27AM 24.2394 109.4327 230° Southwest  Level Estimated
06:28AM 24.2075 109.3911 230° Southwest  Level Estimated
06:29AM 24.2075 109.3911 90° East  Level Estimated
06:30AM 24.2075 109.3911 90° East  Level Estimated
06:31AM 24.2075 109.3911 90° East  Level Estimated
06:32AM 24.2075 109.3911 90° East  Level Estimated
06:33AM 24.2075 109.3911 90° East  Level Estimated
06:34AM 24.2075 109.3911 90° East  Level Estimated
06:35AM 24.2075 109.3911 90° East  Level Estimated
06:36AM 24.2075 109.3911 90° East  Level Estimated
06:37AM 24.2075 109.3911 90° East  Level Estimated
06:38AM 24.2075 109.3911 90° East  Level Estimated
06:39AM 24.2075 109.3911 90° East  Level Estimated
06:40AM 24.2075 109.3911 90° East  Level Estimated
06:41AM 24.2075 109.3911 90° East  Level Estimated
06:42AM 24.2075 109.3911 90° East  Level Estimated
06:43AM 24.2075 109.3911 90° East  Level Estimated
06:44AM 24.2075 109.3911 90° East  Level Estimated
06:45AM 24.2075 109.3911 90° East  Level Estimated
06:46AM 24.2075 109.3911 90° East  Level Estimated
06:47AM 24.2075 109.3911 90° East  Level Estimated
06:48AM 24.2075 109.3911 90° East  Level Estimated
06:49AM 24.2075 109.3911 90° East  Level Estimated